sensor_id;sensor_type;location;lat;lon;timestamp;P1;durP1;ratioP1;P2;durP2;ratioP2
22656;SDS011;11495;55.610;12.100;2023-08-06T00:00:11;1.47;;;1.20;;
22656;SDS011;11495;55.610;12.100;2023-08-06T00:02:36;1.60;;;1.23;;
22656;SDS011;11495;55.610;12.100;2023-08-06T00:05:01;1.37;;;1.07;;
22656;SDS011;11495;55.610;12.100;2023-08-06T00:07:26;1.40;;;1.20;;
22656;SDS011;11495;55.610;12.100;2023-08-06T00:09:51;1.67;;;1.37;;
22656;SDS011;11495;55.610;12.100;2023-08-06T00:12:17;2.13;;;1.20;;
22656;SDS011;11495;55.610;12.100;2023-08-06T00:14:42;1.30;;;1.20;;
22656;SDS011;11495;55.610;12.100;2023-08-06T00:17:07;1.02;;;0.90;;
22656;SDS011;11495;55.610;12.100;2023-08-06T00:19:33;2.53;;;1.58;;
22656;SDS011;11495;55.610;12.100;2023-08-06T00:21:58;1.27;;;1.13;;
22656;SDS011;11495;55.610;12.100;2023-08-06T00:24:23;1.50;;;1.03;;
22656;SDS011;11495;55.610;12.100;2023-08-06T00:26:48;1.50;;;1.40;;
22656;SDS011;11495;55.610;12.100;2023-08-06T00:29:14;1.77;;;1.53;;
22656;SDS011;11495;55.610;12.100;2023-08-06T00:31:39;1.77;;;1.40;;
22656;SDS011;11495;55.610;12.100;2023-08-06T00:34:04;2.77;;;1.77;;
22656;SDS011;11495;55.610;12.100;2023-08-06T00:36:29;1.67;;;1.13;;
22656;SDS011;11495;55.610;12.100;2023-08-06T00:38:54;1.53;;;1.33;;
22656;SDS011;11495;55.610;12.100;2023-08-06T00:41:20;3.20;;;1.45;;
22656;SDS011;11495;55.610;12.100;2023-08-06T00:43:46;2.00;;;1.67;;
22656;SDS011;11495;55.610;12.100;2023-08-06T00:46:11;1.53;;;1.07;;
22656;SDS011;11495;55.610;12.100;2023-08-06T00:48:36;2.08;;;1.12;;
22656;SDS011;11495;55.610;12.100;2023-08-06T00:51:01;2.20;;;1.60;;
22656;SDS011;11495;55.610;12.100;2023-08-06T00:53:27;2.28;;;1.10;;
22656;SDS011;11495;55.610;12.100;2023-08-06T00:55:52;1.25;;;1.05;;
22656;SDS011;11495;55.610;12.100;2023-08-06T00:58:18;1.15;;;1.05;;
22656;SDS011;11495;55.610;12.100;2023-08-06T01:00:43;1.15;;;1.02;;
22656;SDS011;11495;55.610;12.100;2023-08-06T01:03:08;1.23;;;0.80;;
22656;SDS011;11495;55.610;12.100;2023-08-06T01:05:34;1.13;;;1.00;;
22656;SDS011;11495;55.610;12.100;2023-08-06T01:13:04;1.40;;;1.30;;
22656;SDS011;11495;55.610;12.100;2023-08-06T01:15:55;1.12;;;1.02;;
22656;SDS011;11495;55.610;12.100;2023-08-06T01:18:19;1.25;;;1.00;;
22656;SDS011;11495;55.610;12.100;2023-08-06T01:20:44;2.70;;;1.43;;
22656;SDS011;11495;55.610;12.100;2023-08-06T01:23:09;1.30;;;1.20;;
22656;SDS011;11495;55.610;12.100;2023-08-06T01:28:22;1.73;;;1.10;;
22656;SDS011;11495;55.610;12.100;2023-08-06T01:30:48;2.47;;;1.20;;
22656;SDS011;11495;55.610;12.100;2023-08-06T01:33:14;1.15;;;0.98;;
22656;SDS011;11495;55.610;12.100;2023-08-06T01:35:41;1.08;;;0.98;;
22656;SDS011;11495;55.610;12.100;2023-08-06T01:38:07;1.08;;;0.98;;
22656;SDS011;11495;55.610;12.100;2023-08-06T01:40:32;1.48;;;1.37;;
22656;SDS011;11495;55.610;12.100;2023-08-06T01:42:59;1.62;;;1.37;;
22656;SDS011;11495;55.610;12.100;2023-08-06T01:45:24;3.30;;;1.10;;
22656;SDS011;11495;55.610;12.100;2023-08-06T01:47:49;1.37;;;1.27;;
22656;SDS011;11495;55.610;12.100;2023-08-06T01:50:15;1.30;;;1.20;;
22656;SDS011;11495;55.610;12.100;2023-08-06T01:52:40;2.40;;;1.10;;
22656;SDS011;11495;55.610;12.100;2023-08-06T01:55:05;1.80;;;1.30;;
22656;SDS011;11495;55.610;12.100;2023-08-06T01:57:30;1.15;;;1.05;;
22656;SDS011;11495;55.610;12.100;2023-08-06T01:59:55;0.73;;;0.73;;
22656;SDS011;11495;55.610;12.100;2023-08-06T02:02:21;1.30;;;1.10;;
22656;SDS011;11495;55.610;12.100;2023-08-06T02:04:46;1.67;;;1.10;;
22656;SDS011;11495;55.610;12.100;2023-08-06T02:07:11;1.10;;;1.00;;
22656;SDS011;11495;55.610;12.100;2023-08-06T02:09:36;1.20;;;1.10;;
22656;SDS011;11495;55.610;12.100;2023-08-06T02:12:02;2.62;;;1.20;;
22656;SDS011;11495;55.610;12.100;2023-08-06T02:14:27;1.12;;;1.02;;
22656;SDS011;11495;55.610;12.100;2023-08-06T02:16:52;1.55;;;1.02;;
22656;SDS011;11495;55.610;12.100;2023-08-06T02:19:18;2.40;;;0.97;;
22656;SDS011;11495;55.610;12.100;2023-08-06T02:21:43;1.40;;;1.17;;
22656;SDS011;11495;55.610;12.100;2023-08-06T02:24:08;1.50;;;1.17;;
22656;SDS011;11495;55.610;12.100;2023-08-06T02:26:33;1.47;;;1.37;;
22656;SDS011;11495;55.610;12.100;2023-08-06T02:28:58;1.40;;;1.10;;
22656;SDS011;11495;55.610;12.100;2023-08-06T02:31:24;1.17;;;0.95;;
22656;SDS011;11495;55.610;12.100;2023-08-06T02:33:49;1.40;;;1.07;;
22656;SDS011;11495;55.610;12.100;2023-08-06T02:36:14;1.97;;;1.40;;
22656;SDS011;11495;55.610;12.100;2023-08-06T02:38:39;4.68;;;2.85;;
22656;SDS011;11495;55.610;12.100;2023-08-06T02:41:05;1.57;;;1.47;;
22656;SDS011;11495;55.610;12.100;2023-08-06T02:43:30;1.60;;;1.37;;
22656;SDS011;11495;55.610;12.100;2023-08-06T02:46:01;1.95;;;1.37;;
22656;SDS011;11495;55.610;12.100;2023-08-06T02:48:26;1.23;;;1.12;;
22656;SDS011;11495;55.610;12.100;2023-08-06T02:50:52;1.05;;;1.05;;
22656;SDS011;11495;55.610;12.100;2023-08-06T02:53:17;1.45;;;1.02;;
22656;SDS011;11495;55.610;12.100;2023-08-06T02:55:46;1.53;;;1.30;;
22656;SDS011;11495;55.610;12.100;2023-08-06T02:58:13;1.27;;;1.17;;
22656;SDS011;11495;55.610;12.100;2023-08-06T03:00:38;1.70;;;1.42;;
22656;SDS011;11495;55.610;12.100;2023-08-06T03:03:03;1.53;;;1.13;;
22656;SDS011;11495;55.610;12.100;2023-08-06T03:05:28;1.83;;;1.50;;
22656;SDS011;11495;55.610;12.100;2023-08-06T03:07:54;1.00;;;0.90;;
22656;SDS011;11495;55.610;12.100;2023-08-06T03:10:19;2.10;;;1.50;;
22656;SDS011;11495;55.610;12.100;2023-08-06T03:12:45;1.58;;;1.37;;
22656;SDS011;11495;55.610;12.100;2023-08-06T03:15:11;1.75;;;1.55;;
22656;SDS011;11495;55.610;12.100;2023-08-06T03:17:36;3.80;;;1.77;;
22656;SDS011;11495;55.610;12.100;2023-08-06T03:20:01;1.35;;;1.25;;
22656;SDS011;11495;55.610;12.100;2023-08-06T03:22:26;3.40;;;1.53;;
22656;SDS011;11495;55.610;12.100;2023-08-06T03:24:52;2.07;;;1.50;;
22656;SDS011;11495;55.610;12.100;2023-08-06T03:27:17;1.93;;;1.53;;
22656;SDS011;11495;55.610;12.100;2023-08-06T03:29:42;2.70;;;1.10;;
22656;SDS011;11495;55.610;12.100;2023-08-06T03:32:07;2.00;;;1.53;;
22656;SDS011;11495;55.610;12.100;2023-08-06T03:34:32;1.47;;;1.30;;
22656;SDS011;11495;55.610;12.100;2023-08-06T03:36:58;1.63;;;1.03;;
22656;SDS011;11495;55.610;12.100;2023-08-06T03:39:23;1.83;;;1.57;;
22656;SDS011;11495;55.610;12.100;2023-08-06T03:41:48;2.13;;;1.40;;
22656;SDS011;11495;55.610;12.100;2023-08-06T03:44:13;1.27;;;1.10;;
22656;SDS011;11495;55.610;12.100;2023-08-06T03:46:38;1.10;;;1.00;;
22656;SDS011;11495;55.610;12.100;2023-08-06T03:49:04;2.28;;;1.35;;
22656;SDS011;11495;55.610;12.100;2023-08-06T03:51:29;1.97;;;0.83;;
22656;SDS011;11495;55.610;12.100;2023-08-06T03:53:54;1.77;;;1.37;;
22656;SDS011;11495;55.610;12.100;2023-08-06T03:56:19;3.70;;;1.30;;
22656;SDS011;11495;55.610;12.100;2023-08-06T03:58:45;1.83;;;1.60;;
22656;SDS011;11495;55.610;12.100;2023-08-06T04:01:10;2.42;;;1.25;;
22656;SDS011;11495;55.610;12.100;2023-08-06T04:03:36;1.30;;;1.20;;
22656;SDS011;11495;55.610;12.100;2023-08-06T04:06:04;0.90;;;0.90;;
22656;SDS011;11495;55.610;12.100;2023-08-06T04:08:29;1.60;;;1.00;;
22656;SDS011;11495;55.610;12.100;2023-08-06T04:10:55;2.05;;;1.33;;
22656;SDS011;11495;55.610;12.100;2023-08-06T04:13:20;1.17;;;0.87;;
22656;SDS011;11495;55.610;12.100;2023-08-06T04:15:45;1.17;;;1.07;;
22656;SDS011;11495;55.610;12.100;2023-08-06T04:18:11;1.27;;;1.17;;
22656;SDS011;11495;55.610;12.100;2023-08-06T04:20:43;1.35;;;1.08;;
22656;SDS011;11495;55.610;12.100;2023-08-06T04:23:09;1.87;;;1.00;;
22656;SDS011;11495;55.610;12.100;2023-08-06T04:25:34;2.67;;;1.30;;
22656;SDS011;11495;55.610;12.100;2023-08-06T04:27:59;1.73;;;1.53;;
22656;SDS011;11495;55.610;12.100;2023-08-06T04:30:24;4.03;;;2.23;;
22656;SDS011;11495;55.610;12.100;2023-08-06T04:32:49;3.50;;;1.73;;
22656;SDS011;11495;55.610;12.100;2023-08-06T04:35:15;2.75;;;1.85;;
22656;SDS011;11495;55.610;12.100;2023-08-06T04:37:40;3.90;;;1.98;;
22656;SDS011;11495;55.610;12.100;2023-08-06T04:40:06;4.80;;;2.40;;
22656;SDS011;11495;55.610;12.100;2023-08-06T04:42:32;3.20;;;2.70;;
22656;SDS011;11495;55.610;12.100;2023-08-06T04:44:57;3.63;;;2.23;;
22656;SDS011;11495;55.610;12.100;2023-08-06T04:47:22;3.00;;;2.17;;
22656;SDS011;11495;55.610;12.100;2023-08-06T04:49:47;2.40;;;2.03;;
22656;SDS011;11495;55.610;12.100;2023-08-06T04:52:12;1.90;;;1.50;;
22656;SDS011;11495;55.610;12.100;2023-08-06T04:54:38;6.20;;;2.10;;
22656;SDS011;11495;55.610;12.100;2023-08-06T04:57:03;2.87;;;1.93;;
22656;SDS011;11495;55.610;12.100;2023-08-06T04:59:28;2.78;;;2.47;;
22656;SDS011;11495;55.610;12.100;2023-08-06T05:01:53;2.63;;;2.20;;
22656;SDS011;11495;55.610;12.100;2023-08-06T05:04:19;2.20;;;2.00;;
22656;SDS011;11495;55.610;12.100;2023-08-06T05:06:44;1.93;;;1.70;;
22656;SDS011;11495;55.610;12.100;2023-08-06T05:09:09;4.23;;;2.47;;
22656;SDS011;11495;55.610;12.100;2023-08-06T05:11:34;3.40;;;2.40;;
22656;SDS011;11495;55.610;12.100;2023-08-06T05:14:00;2.77;;;1.93;;
22656;SDS011;11495;55.610;12.100;2023-08-06T05:16:25;4.40;;;2.20;;
22656;SDS011;11495;55.610;12.100;2023-08-06T05:18:50;3.50;;;2.33;;
22656;SDS011;11495;55.610;12.100;2023-08-06T05:21:15;3.17;;;2.30;;
22656;SDS011;11495;55.610;12.100;2023-08-06T05:23:41;3.70;;;2.45;;
22656;SDS011;11495;55.610;12.100;2023-08-06T05:26:07;3.35;;;2.65;;
22656;SDS011;11495;55.610;12.100;2023-08-06T05:28:32;3.60;;;3.00;;
22656;SDS011;11495;55.610;12.100;2023-08-06T05:30:57;2.83;;;2.00;;
22656;SDS011;11495;55.610;12.100;2023-08-06T05:33:22;3.73;;;2.40;;
22656;SDS011;11495;55.610;12.100;2023-08-06T05:35:48;2.57;;;2.37;;
22656;SDS011;11495;55.610;12.100;2023-08-06T05:38:14;4.37;;;2.42;;
22656;SDS011;11495;55.610;12.100;2023-08-06T05:40:39;4.73;;;2.13;;
22656;SDS011;11495;55.610;12.100;2023-08-06T05:43:04;2.87;;;2.03;;
22656;SDS011;11495;55.610;12.100;2023-08-06T05:45:29;4.63;;;2.27;;
22656;SDS011;11495;55.610;12.100;2023-08-06T05:47:55;2.15;;;1.70;;
22656;SDS011;11495;55.610;12.100;2023-08-06T05:50:22;2.42;;;1.70;;
22656;SDS011;11495;55.610;12.100;2023-08-06T05:52:48;3.17;;;2.10;;
22656;SDS011;11495;55.610;12.100;2023-08-06T05:55:13;2.07;;;1.83;;
22656;SDS011;11495;55.610;12.100;2023-08-06T05:57:38;2.80;;;1.70;;
22656;SDS011;11495;55.610;12.100;2023-08-06T06:00:03;3.40;;;1.97;;
22656;SDS011;11495;55.610;12.100;2023-08-06T06:02:31;2.50;;;2.00;;
22656;SDS011;11495;55.610;12.100;2023-08-06T06:04:56;5.00;;;2.40;;
22656;SDS011;11495;55.610;12.100;2023-08-06T06:07:21;2.80;;;1.80;;
22656;SDS011;11495;55.610;12.100;2023-08-06T06:09:47;1.85;;;1.65;;
22656;SDS011;11495;55.610;12.100;2023-08-06T06:12:12;3.03;;;2.00;;
22656;SDS011;11495;55.610;12.100;2023-08-06T06:14:37;3.37;;;1.77;;
22656;SDS011;11495;55.610;12.100;2023-08-06T06:17:02;1.67;;;1.50;;
22656;SDS011;11495;55.610;12.100;2023-08-06T06:19:28;1.95;;;1.30;;
22656;SDS011;11495;55.610;12.100;2023-08-06T06:21:53;3.73;;;1.77;;
22656;SDS011;11495;55.610;12.100;2023-08-06T06:24:18;1.70;;;1.30;;
22656;SDS011;11495;55.610;12.100;2023-08-06T06:26:43;2.10;;;1.57;;
22656;SDS011;11495;55.610;12.100;2023-08-06T06:29:08;2.67;;;1.13;;
22656;SDS011;11495;55.610;12.100;2023-08-06T06:31:34;1.23;;;1.13;;
22656;SDS011;11495;55.610;12.100;2023-08-06T06:33:59;3.20;;;1.60;;
22656;SDS011;11495;55.610;12.100;2023-08-06T06:36:24;1.83;;;1.27;;
22656;SDS011;11495;55.610;12.100;2023-08-06T06:38:49;2.90;;;1.20;;
22656;SDS011;11495;55.610;12.100;2023-08-06T06:41:14;2.10;;;1.27;;
22656;SDS011;11495;55.610;12.100;2023-08-06T06:43:40;1.00;;;1.00;;
22656;SDS011;11495;55.610;12.100;2023-08-06T06:46:05;3.17;;;1.30;;
22656;SDS011;11495;55.610;12.100;2023-08-06T06:48:32;1.07;;;0.93;;
22656;SDS011;11495;55.610;12.100;2023-08-06T06:50:57;0.80;;;0.80;;
22656;SDS011;11495;55.610;12.100;2023-08-06T06:53:23;2.20;;;1.45;;
22656;SDS011;11495;55.610;12.100;2023-08-06T06:55:53;1.27;;;1.15;;
22656;SDS011;11495;55.610;12.100;2023-08-06T06:58:18;1.62;;;0.98;;
22656;SDS011;11495;55.610;12.100;2023-08-06T07:00:43;4.10;;;1.57;;
22656;SDS011;11495;55.610;12.100;2023-08-06T07:03:08;1.00;;;0.90;;
22656;SDS011;11495;55.610;12.100;2023-08-06T07:05:33;2.27;;;1.20;;
22656;SDS011;11495;55.610;12.100;2023-08-06T07:07:59;1.92;;;0.98;;
22656;SDS011;11495;55.610;12.100;2023-08-06T07:10:25;1.43;;;1.33;;
22656;SDS011;11495;55.610;12.100;2023-08-06T07:12:50;1.20;;;1.10;;
22656;SDS011;11495;55.610;12.100;2023-08-06T07:15:16;1.20;;;0.90;;
22656;SDS011;11495;55.610;12.100;2023-08-06T07:17:42;1.42;;;1.23;;
22656;SDS011;11495;55.610;12.100;2023-08-06T07:20:07;2.13;;;1.40;;
22656;SDS011;11495;55.610;12.100;2023-08-06T07:22:33;4.37;;;1.60;;
22656;SDS011;11495;55.610;12.100;2023-08-06T07:24:58;2.70;;;1.50;;
22656;SDS011;11495;55.610;12.100;2023-08-06T07:27:23;1.87;;;1.03;;
22656;SDS011;11495;55.610;12.100;2023-08-06T07:29:49;1.42;;;1.15;;
22656;SDS011;11495;55.610;12.100;2023-08-06T07:32:14;1.40;;;1.00;;
22656;SDS011;11495;55.610;12.100;2023-08-06T07:34:40;1.03;;;1.03;;
22656;SDS011;11495;55.610;12.100;2023-08-06T07:37:05;1.47;;;1.13;;
22656;SDS011;11495;55.610;12.100;2023-08-06T07:39:31;2.08;;;1.23;;
22656;SDS011;11495;55.610;12.100;2023-08-06T07:41:56;2.55;;;1.27;;
22656;SDS011;11495;55.610;12.100;2023-08-06T07:44:21;2.00;;;1.13;;
22656;SDS011;11495;55.610;12.100;2023-08-06T07:46:46;1.13;;;1.00;;
22656;SDS011;11495;55.610;12.100;2023-08-06T07:49:11;1.80;;;1.57;;
22656;SDS011;11495;55.610;12.100;2023-08-06T07:51:37;1.47;;;1.17;;
22656;SDS011;11495;55.610;12.100;2023-08-06T07:54:02;2.70;;;1.27;;
22656;SDS011;11495;55.610;12.100;2023-08-06T07:56:28;1.40;;;1.10;;
22656;SDS011;11495;55.610;12.100;2023-08-06T07:58:53;1.60;;;1.20;;
22656;SDS011;11495;55.610;12.100;2023-08-06T08:01:18;3.93;;;1.30;;
22656;SDS011;11495;55.610;12.100;2023-08-06T08:03:44;1.13;;;0.90;;
22656;SDS011;11495;55.610;12.100;2023-08-06T08:06:09;1.55;;;1.30;;
22656;SDS011;11495;55.610;12.100;2023-08-06T08:08:34;2.57;;;1.10;;
22656;SDS011;11495;55.610;12.100;2023-08-06T08:11:03;3.08;;;1.58;;
22656;SDS011;11495;55.610;12.100;2023-08-06T08:13:28;2.20;;;0.87;;
22656;SDS011;11495;55.610;12.100;2023-08-06T08:15:57;1.20;;;1.10;;
22656;SDS011;11495;55.610;12.100;2023-08-06T08:18:23;1.25;;;1.12;;
22656;SDS011;11495;55.610;12.100;2023-08-06T08:20:48;2.30;;;1.23;;
22656;SDS011;11495;55.610;12.100;2023-08-06T08:23:13;1.57;;;1.33;;
22656;SDS011;11495;55.610;12.100;2023-08-06T08:25:38;2.20;;;1.30;;
22656;SDS011;11495;55.610;12.100;2023-08-06T08:28:04;1.30;;;1.20;;
22656;SDS011;11495;55.610;12.100;2023-08-06T08:30:29;1.53;;;1.10;;
22656;SDS011;11495;55.610;12.100;2023-08-06T08:32:54;2.30;;;1.23;;
22656;SDS011;11495;55.610;12.100;2023-08-06T08:35:19;1.57;;;1.10;;
22656;SDS011;11495;55.610;12.100;2023-08-06T08:37:45;2.23;;;1.33;;
22656;SDS011;11495;55.610;12.100;2023-08-06T08:40:10;1.33;;;1.23;;
22656;SDS011;11495;55.610;12.100;2023-08-06T08:42:36;1.67;;;1.08;;
22656;SDS011;11495;55.610;12.100;2023-08-06T08:45:02;1.17;;;1.03;;
22656;SDS011;11495;55.610;12.100;2023-08-06T08:47:27;3.70;;;1.12;;
22656;SDS011;11495;55.610;12.100;2023-08-06T08:49:53;2.15;;;1.05;;
22656;SDS011;11495;55.610;12.100;2023-08-06T08:52:20;0.80;;;0.80;;
22656;SDS011;11495;55.610;12.100;2023-08-06T08:54:46;1.30;;;1.05;;
22656;SDS011;11495;55.610;12.100;2023-08-06T08:57:16;1.50;;;1.00;;
22656;SDS011;11495;55.610;12.100;2023-08-06T08:59:42;2.05;;;1.15;;
22656;SDS011;11495;55.610;12.100;2023-08-06T09:02:07;1.90;;;1.00;;
22656;SDS011;11495;55.610;12.100;2023-08-06T09:04:34;2.28;;;1.20;;
22656;SDS011;11495;55.610;12.100;2023-08-06T09:07:01;1.83;;;1.00;;
22656;SDS011;11495;55.610;12.100;2023-08-06T09:09:31;2.58;;;1.20;;
22656;SDS011;11495;55.610;12.100;2023-08-06T09:12:00;1.87;;;0.80;;
22656;SDS011;11495;55.610;12.100;2023-08-06T09:14:26;1.58;;;1.10;;
22656;SDS011;11495;55.610;12.100;2023-08-06T09:16:51;1.92;;;0.93;;
22656;SDS011;11495;55.610;12.100;2023-08-06T09:19:17;1.73;;;0.97;;
22656;SDS011;11495;55.610;12.100;2023-08-06T09:21:42;2.22;;;1.00;;
22656;SDS011;11495;55.610;12.100;2023-08-06T09:24:08;1.75;;;1.02;;
22656;SDS011;11495;55.610;12.100;2023-08-06T09:26:35;2.60;;;0.80;;
22656;SDS011;11495;55.610;12.100;2023-08-06T09:29:01;0.60;;;0.60;;
22656;SDS011;11495;55.610;12.100;2023-08-06T09:31:32;1.80;;;0.73;;
22656;SDS011;11495;55.610;12.100;2023-08-06T09:33:59;0.82;;;0.80;;
22656;SDS011;11495;55.610;12.100;2023-08-06T09:36:24;1.10;;;1.00;;
22656;SDS011;11495;55.610;12.100;2023-08-06T09:38:49;1.23;;;0.80;;
22656;SDS011;11495;55.610;12.100;2023-08-06T09:41:25;0.90;;;0.90;;
22656;SDS011;11495;55.610;12.100;2023-08-06T09:43:51;1.48;;;0.80;;
22656;SDS011;11495;55.610;12.100;2023-08-06T09:46:16;1.33;;;1.10;;
22656;SDS011;11495;55.610;12.100;2023-08-06T09:48:44;1.10;;;1.00;;
22656;SDS011;11495;55.610;12.100;2023-08-06T09:51:09;2.42;;;1.00;;
22656;SDS011;11495;55.610;12.100;2023-08-06T09:53:36;2.22;;;1.10;;
22656;SDS011;11495;55.610;12.100;2023-08-06T09:56:02;1.90;;;1.05;;
22656;SDS011;11495;55.610;12.100;2023-08-06T09:58:27;1.73;;;0.90;;
22656;SDS011;11495;55.610;12.100;2023-08-06T10:00:53;0.95;;;0.88;;
22656;SDS011;11495;55.610;12.100;2023-08-06T10:03:18;1.90;;;1.40;;
22656;SDS011;11495;55.610;12.100;2023-08-06T10:05:44;0.80;;;0.80;;
22656;SDS011;11495;55.610;12.100;2023-08-06T10:08:09;1.35;;;1.15;;
22656;SDS011;11495;55.610;12.100;2023-08-06T10:10:34;1.43;;;1.13;;
22656;SDS011;11495;55.610;12.100;2023-08-06T10:13:00;3.45;;;1.67;;
22656;SDS011;11495;55.610;12.100;2023-08-06T10:15:26;2.50;;;1.20;;
22656;SDS011;11495;55.610;12.100;2023-08-06T10:17:55;1.40;;;1.12;;
22656;SDS011;11495;55.610;12.100;2023-08-06T10:20:21;2.40;;;1.37;;
22656;SDS011;11495;55.610;12.100;2023-08-06T10:23:03;1.48;;;1.20;;
22656;SDS011;11495;55.610;12.100;2023-08-06T10:25:32;2.40;;;1.60;;
22656;SDS011;11495;55.610;12.100;2023-08-06T10:27:58;3.47;;;1.73;;
22656;SDS011;11495;55.610;12.100;2023-08-06T10:32:50;3.53;;;1.87;;
22656;SDS011;11495;55.610;12.100;2023-08-06T10:35:28;1.12;;;1.02;;
22656;SDS011;11495;55.610;12.100;2023-08-06T10:38:03;2.60;;;1.30;;
22656;SDS011;11495;55.610;12.100;2023-08-06T10:40:28;2.90;;;1.48;;
22656;SDS011;11495;55.610;12.100;2023-08-06T10:42:55;2.25;;;1.30;;
22656;SDS011;11495;55.610;12.100;2023-08-06T10:45:20;2.60;;;1.30;;
22656;SDS011;11495;55.610;12.100;2023-08-06T10:47:46;2.50;;;1.40;;
22656;SDS011;11495;55.610;12.100;2023-08-06T10:50:14;3.35;;;1.30;;
22656;SDS011;11495;55.610;12.100;2023-08-06T10:52:43;3.65;;;1.23;;
22656;SDS011;11495;55.610;12.100;2023-08-06T10:55:09;2.00;;;1.35;;
22656;SDS011;11495;55.610;12.100;2023-08-06T10:57:34;1.45;;;1.17;;
22656;SDS011;11495;55.610;12.100;2023-08-06T10:59:59;1.62;;;1.42;;
22656;SDS011;11495;55.610;12.100;2023-08-06T11:02:25;4.50;;;2.20;;
22656;SDS011;11495;55.610;12.100;2023-08-06T11:04:50;1.67;;;1.50;;
22656;SDS011;11495;55.610;12.100;2023-08-06T11:07:15;1.77;;;1.40;;
22656;SDS011;11495;55.610;12.100;2023-08-06T11:09:41;4.07;;;1.50;;
22656;SDS011;11495;55.610;12.100;2023-08-06T11:12:09;3.35;;;1.25;;
22656;SDS011;11495;55.610;12.100;2023-08-06T11:14:35;2.60;;;1.20;;
22656;SDS011;11495;55.610;12.100;2023-08-06T11:17:00;2.23;;;1.43;;
22656;SDS011;11495;55.610;12.100;2023-08-06T11:19:25;1.58;;;1.27;;
22656;SDS011;11495;55.610;12.100;2023-08-06T11:21:51;2.20;;;1.13;;
22656;SDS011;11495;55.610;12.100;2023-08-06T11:24:16;3.33;;;1.52;;
22656;SDS011;11495;55.610;12.100;2023-08-06T11:26:42;2.70;;;1.65;;
22656;SDS011;11495;55.610;12.100;2023-08-06T11:29:09;2.28;;;1.60;;
22656;SDS011;11495;55.610;12.100;2023-08-06T11:31:35;4.20;;;1.37;;
22656;SDS011;11495;55.610;12.100;2023-08-06T11:34:01;1.67;;;1.12;;
22656;SDS011;11495;55.610;12.100;2023-08-06T11:36:33;2.20;;;1.53;;
22656;SDS011;11495;55.610;12.100;2023-08-06T11:39:01;2.92;;;1.52;;
22656;SDS011;11495;55.610;12.100;2023-08-06T11:41:31;3.55;;;1.48;;
22656;SDS011;11495;55.610;12.100;2023-08-06T11:43:56;4.10;;;1.58;;
22656;SDS011;11495;55.610;12.100;2023-08-06T11:46:21;3.65;;;1.58;;
22656;SDS011;11495;55.610;12.100;2023-08-06T11:48:58;2.22;;;1.27;;
22656;SDS011;11495;55.610;12.100;2023-08-06T11:51:23;2.78;;;1.60;;
22656;SDS011;11495;55.610;12.100;2023-08-06T11:53:49;2.03;;;1.35;;
22656;SDS011;11495;55.610;12.100;2023-08-06T11:56:15;1.58;;;1.20;;
22656;SDS011;11495;55.610;12.100;2023-08-06T11:58:43;1.85;;;1.35;;
22656;SDS011;11495;55.610;12.100;2023-08-06T12:01:09;1.85;;;1.20;;
22656;SDS011;11495;55.610;12.100;2023-08-06T12:03:40;2.40;;;1.50;;
22656;SDS011;11495;55.610;12.100;2023-08-06T12:06:06;3.65;;;1.75;;
22656;SDS011;11495;55.610;12.100;2023-08-06T12:08:34;1.70;;;1.45;;
22656;SDS011;11495;55.610;12.100;2023-08-06T12:10:59;2.15;;;1.52;;
22656;SDS011;11495;55.610;12.100;2023-08-06T12:13:25;3.65;;;2.62;;
22656;SDS011;11495;55.610;12.100;2023-08-06T12:15:50;2.63;;;1.50;;
22656;SDS011;11495;55.610;12.100;2023-08-06T12:18:18;4.82;;;2.12;;
22656;SDS011;11495;55.610;12.100;2023-08-06T12:20:43;1.55;;;1.40;;
22656;SDS011;11495;55.610;12.100;2023-08-06T12:23:08;3.23;;;1.70;;
22656;SDS011;11495;55.610;12.100;2023-08-06T12:25:34;4.87;;;1.65;;
22656;SDS011;11495;55.610;12.100;2023-08-06T12:28:00;6.18;;;3.00;;
22656;SDS011;11495;55.610;12.100;2023-08-06T12:30:25;10.32;;;4.37;;
22656;SDS011;11495;55.610;12.100;2023-08-06T12:32:50;7.53;;;2.80;;
22656;SDS011;11495;55.610;12.100;2023-08-06T12:35:16;4.95;;;2.00;;
22656;SDS011;11495;55.610;12.100;2023-08-06T12:37:42;2.97;;;2.00;;
22656;SDS011;11495;55.610;12.100;2023-08-06T12:40:08;1.55;;;1.37;;
22656;SDS011;11495;55.610;12.100;2023-08-06T12:42:34;2.58;;;1.70;;
22656;SDS011;11495;55.610;12.100;2023-08-06T12:44:59;1.80;;;1.27;;
22656;SDS011;11495;55.610;12.100;2023-08-06T12:47:24;3.47;;;1.47;;
22656;SDS011;11495;55.610;12.100;2023-08-06T12:49:49;2.50;;;1.70;;
22656;SDS011;11495;55.610;12.100;2023-08-06T12:52:15;1.80;;;1.40;;
22656;SDS011;11495;55.610;12.100;2023-08-06T12:54:41;2.65;;;1.62;;
22656;SDS011;11495;55.610;12.100;2023-08-06T12:57:06;1.70;;;1.27;;
22656;SDS011;11495;55.610;12.100;2023-08-06T12:59:32;3.00;;;1.33;;
22656;SDS011;11495;55.610;12.100;2023-08-06T13:02:01;2.05;;;1.08;;
22656;SDS011;11495;55.610;12.100;2023-08-06T13:04:27;1.80;;;1.35;;
22656;SDS011;11495;55.610;12.100;2023-08-06T13:06:52;4.10;;;1.60;;
22656;SDS011;11495;55.610;12.100;2023-08-06T13:09:18;2.23;;;1.40;;
22656;SDS011;11495;55.610;12.100;2023-08-06T13:11:44;1.83;;;1.23;;
22656;SDS011;11495;55.610;12.100;2023-08-06T13:14:11;3.60;;;1.85;;
22656;SDS011;11495;55.610;12.100;2023-08-06T13:16:38;2.28;;;1.25;;
22656;SDS011;11495;55.610;12.100;2023-08-06T13:19:04;1.77;;;1.50;;
22656;SDS011;11495;55.610;12.100;2023-08-06T13:21:34;1.98;;;1.37;;
22656;SDS011;11495;55.610;12.100;2023-08-06T13:24:00;1.87;;;1.20;;
22656;SDS011;11495;55.610;12.100;2023-08-06T13:26:26;2.92;;;1.92;;
22656;SDS011;11495;55.610;12.100;2023-08-06T13:28:51;2.83;;;1.40;;
22656;SDS011;11495;55.610;12.100;2023-08-06T13:31:16;2.57;;;1.43;;
22656;SDS011;11495;55.610;12.100;2023-08-06T13:33:42;1.70;;;1.25;;
22656;SDS011;11495;55.610;12.100;2023-08-06T13:36:07;1.48;;;1.37;;
22656;SDS011;11495;55.610;12.100;2023-08-06T13:38:32;3.93;;;1.53;;
22656;SDS011;11495;55.610;12.100;2023-08-06T13:40:57;3.67;;;1.30;;
22656;SDS011;11495;55.610;12.100;2023-08-06T13:43:24;1.70;;;1.20;;
22656;SDS011;11495;55.610;12.100;2023-08-06T13:45:49;2.35;;;1.35;;
22656;SDS011;11495;55.610;12.100;2023-08-06T13:48:14;2.27;;;1.40;;
22656;SDS011;11495;55.610;12.100;2023-08-06T13:50:39;2.70;;;1.70;;
22656;SDS011;11495;55.610;12.100;2023-08-06T13:53:04;9.63;;;1.50;;
22656;SDS011;11495;55.610;12.100;2023-08-06T13:55:30;2.40;;;1.40;;
22656;SDS011;11495;55.610;12.100;2023-08-06T13:57:55;1.77;;;1.30;;
22656;SDS011;11495;55.610;12.100;2023-08-06T14:00:20;1.33;;;0.90;;
22656;SDS011;11495;55.610;12.100;2023-08-06T14:02:45;3.33;;;1.40;;
22656;SDS011;11495;55.610;12.100;2023-08-06T14:05:11;3.70;;;2.13;;
22656;SDS011;11495;55.610;12.100;2023-08-06T14:07:36;3.75;;;2.22;;
22656;SDS011;11495;55.610;12.100;2023-08-06T14:10:01;6.00;;;2.90;;
22656;SDS011;11495;55.610;12.100;2023-08-06T14:12:27;3.83;;;1.75;;
22656;SDS011;11495;55.610;12.100;2023-08-06T14:14:52;4.43;;;2.00;;
22656;SDS011;11495;55.610;12.100;2023-08-06T14:17:17;2.80;;;2.00;;
22656;SDS011;11495;55.610;12.100;2023-08-06T14:19:42;2.60;;;1.97;;
22656;SDS011;11495;55.610;12.100;2023-08-06T14:22:08;2.77;;;1.80;;
22656;SDS011;11495;55.610;12.100;2023-08-06T14:24:33;2.87;;;1.47;;
22656;SDS011;11495;55.610;12.100;2023-08-06T14:26:58;2.67;;;1.13;;
22656;SDS011;11495;55.610;12.100;2023-08-06T14:29:23;1.40;;;1.20;;
22656;SDS011;11495;55.610;12.100;2023-08-06T14:31:50;1.70;;;1.00;;
22656;SDS011;11495;55.610;12.100;2023-08-06T14:34:15;2.67;;;1.40;;